Time;durP1;ratioP1;P1;durP2;ratioP2;P2;SDS_P1;SDS_P2;PMS_P1;PMS_P2;Temp;Humidity;BMP_temperature;BMP_pressure;BME280_temperature;BME280_humidity;BME280_pressure;Samples;Min_cycle;Max_cycle;Signal;HPM_P1;HPM_P2
2022/07/16 06:23:19;;;;;;;10.93;2.55;;;;;;;16.90;49.17;97071.38;2086193;28;20879;-65
2022/07/16 06:24:21;;;;;;;8.38;3.45;;;;;;;16.97;48.44;97067.44;2081878;28;20207;-65
2022/07/16 06:25:23;;;;;;;5.70;2.60;;;;;;;17.08;48.11;97065.91;2078505;28;20232;-65
2022/07/16 06:26:25;;;;;;;6.50;3.42;;;;;;;17.08;48.17;97069.38;2080882;28;20200;-63
2022/07/16 06:27:26;;;;;;;24.58;10.30;;;;;;;17.16;48.00;97071.53;2074542;28;20224;-63
2022/07/16 06:28:28;;;;;;;56.47;31.50;;;;;;;17.18;47.56;97069.66;2074080;28;20196;-64
2022/07/16 06:29:30;;;;;;;15.48;7.18;;;;;;;17.34;47.67;97074.75;2070295;28;20193;-64
2022/07/16 06:30:31;;;;;;;10.30;3.15;;;;;;;17.42;47.93;97072.47;2070720;28;20204;-63
2022/07/16 06:31:33;;;;;;;5.88;2.40;;;;;;;17.50;47.55;97073.78;2071103;28;20201;-63
2022/07/16 06:32:34;;;;;;;7.10;3.10;;;;;;;17.54;47.67;97072.63;2075185;28;20225;-64
2022/07/16 06:33:36;;;;;;;15.95;2.85;;;;;;;17.74;47.21;97066.03;2076465;28;20677;-64
2022/07/16 07:06:48;;;;;;;4.55;1.67;;;;;;;19.63;39.03;97089.84;2082926;28;20849;-61
2022/07/16 07:07:50;;;;;;;8.20;1.67;;;;;;;19.82;39.14;97084.91;2085117;28;20189;-64
2022/07/16 07:08:51;;;;;;;6.10;2.03;;;;;;;19.92;38.52;97084.22;2078511;28;20197;-64
2022/07/16 07:09:56;;;;;;;7.55;1.98;;;;;;;20.06;38.59;97090.16;2081277;28;20677;-64
2022/07/16 07:10:59;;;;;;;5.90;2.38;;;;;;;20.03;38.06;97081.59;2082471;28;20189;-64
2022/07/16 07:12:01;;;;;;;4.85;1.80;;;;;;;19.99;38.27;97088.94;2078347;28;20716;-64
2022/07/16 07:13:03;;;;;;;7.15;2.03;;;;;;;20.02;38.50;97086.06;2078680;28;20204;-64
2022/07/16 07:14:04;;;;;;;6.07;1.98;;;;;;;20.27;38.53;97086.81;2083109;28;20204;-64
2022/07/16 07:15:06;;;;;;;7.28;1.50;;;;;;;20.35;37.79;97095.03;2082415;28;20205;-64
2022/07/16 07:16:08;;;;;;;3.80;1.65;;;;;;;20.51;37.13;97092.03;2082776;28;20244;-64
2022/07/16 07:17:10;;;;;;;11.75;1.45;;;;;;;20.53;36.42;97091.91;2082543;28;20228;-64
2022/07/16 07:18:11;;;;;;;6.20;1.60;;;;;;;20.51;36.35;97091.19;2082948;28;20203;-64
2022/07/16 07:19:13;;;;;;;3.65;1.52;;;;;;;20.62;35.55;97087.69;2082628;28;20193;-64
2022/07/16 07:49:05;;;;;;;6.60;1.60;;;;;;;21.47;33.51;97086.25;2103110;27;20570;-64
2022/07/16 07:50:09;;;;;;;5.40;1.50;;;;;;;21.56;33.70;97093.50;2100178;28;20191;-67
2022/07/16 07:51:10;;;;;;;2.50;1.00;;;;;;;21.50;32.80;97086.84;2100413;28;20286;-68
2022/07/16 07:52:13;;;;;;;9.57;2.00;;;;;;;21.72;33.13;97086.91;2088588;27;20225;-68
2022/07/16 07:53:22;;;;;;;8.77;1.35;;;;;;;22.07;33.34;97094.59;2082343;28;20197;-67
2022/07/16 07:54:23;;;;;;;4.30;1.45;;;;;;;22.20;32.87;97093.56;2082113;28;20251;-67
2022/07/16 07:55:26;;;;;;;3.35;1.30;;;;;;;21.92;33.71;97094.06;2081020;28;20205;-67
2022/07/16 07:56:27;;;;;;;6.15;1.58;;;;;;;21.64;34.11;97093.72;2080564;28;20279;-67
2022/07/16 07:57:29;;;;;;;4.80;1.50;;;;;;;22.09;34.21;97103.25;2085528;28;20907;-67
2022/07/16 07:58:30;;;;;;;4.70;1.40;;;;;;;22.61;33.24;97090.03;2090565;28;20211;-68
2022/07/16 07:59:32;;;;;;;3.95;1.30;;;;;;;22.60;32.48;97093.66;2086927;28;20250;-67
2022/07/16 08:00:33;;;;;;;6.15;1.73;;;;;;;22.68;32.17;97098.31;2086989;28;20208;-67
2022/07/16 08:01:42;;;;;;;2.42;1.08;;;;;;;22.47;31.29;97090.38;2089829;28;20200;-69
2022/07/16 08:02:46;;;;;;;17.77;2.05;;;;;;;22.52;31.67;97085.50;2092574;28;20222;-70
2022/07/16 08:30:43;;;;;;;2.50;0.95;;;;;;;23.76;30.79;97095.94;2085173;28;20559;-67
2022/07/16 08:31:44;;;;;;;3.95;0.90;;;;;;;23.68;30.33;97090.44;2080793;28;20574;-67
2022/07/16 08:32:46;;;;;;;4.45;1.35;;;;;;;23.68;30.28;97087.78;2074228;28;20198;-68
2022/07/16 08:33:48;;;;;;;6.40;1.40;;;;;;;23.46;30.06;97100.38;2073488;28;20204;-69
2022/07/16 08:34:50;;;;;;;11.07;1.38;;;;;;;23.57;30.63;97102.09;2074233;28;20194;-68
2022/07/16 08:35:51;;;;;;;3.20;1.08;;;;;;;23.51;30.05;97103.47;2074123;28;20212;-68
2022/07/16 08:36:53;;;;;;;5.13;0.90;;;;;;;23.53;30.17;97101.53;2073359;28;20205;-69
2022/07/16 08:37:55;;;;;;;4.50;1.70;;;;;;;23.61;30.23;97104.31;2074429;28;20200;-68
2022/07/16 08:38:56;;;;;;;6.18;1.17;;;;;;;23.94;30.11;97102.25;2075229;28;20293;-69
2022/07/16 08:39:58;;;;;;;2.58;0.90;;;;;;;23.63;29.78;97107.69;2075214;28;20228;-68
2022/07/16 08:41:02;;;;;;;3.90;0.98;;;;;;;23.87;30.18;97094.94;2076329;28;20193;-68
2022/07/16 08:42:04;;;;;;;3.90;0.98;;;;;;;23.92;29.84;97103.38;2072254;28;20226;-68
2022/07/16 08:43:07;;;;;;;2.28;0.75;;;;;;;24.21;29.89;97106.00;2073184;28;20622;-68
2022/07/16 08:44:13;;;;;;;3.47;0.90;;;;;;;24.18;29.23;97100.16;2083408;28;20766;-68
2022/07/16 08:45:17;;;;;;;2.83;1.08;;;;;;;24.36;28.65;97106.41;2083541;28;20196;-68
2022/07/16 08:46:21;;;;;;;5.13;0.85;;;;;;;24.23;29.00;97103.22;2073823;28;20685;-68
2022/07/16 09:14:11;;;;;;;6.75;0.80;;;;;;;24.87;26.96;97112.31;2085612;28;20576;-68
2022/07/16 09:15:26;;;;;;;4.25;0.80;;;;;;;25.01;27.21;97116.31;2083936;28;20203;-67
2022/07/16 09:16:32;;;;;;;3.92;0.80;;;;;;;24.81;27.50;97112.06;2081660;28;20205;-67
2022/07/16 09:17:33;;;;;;;6.85;0.70;;;;;;;25.18;27.85;97114.69;2081042;28;20224;-67
2022/07/16 09:18:35;;;;;;;3.33;0.82;;;;;;;25.18;27.53;97112.03;2082036;28;20197;-67
2022/07/16 09:19:37;;;;;;;3.65;1.10;;;;;;;25.17;27.41;97117.53;2082329;28;20638;-67
2022/07/16 09:20:43;;;;;;;2.05;0.80;;;;;;;24.97;27.45;97112.28;2082944;28;20203;-68
2022/07/16 09:22:08;;;;;;;3.20;1.10;;;;;;;25.51;26.94;97117.78;2080356;28;20201;-67
2022/07/16 09:23:38;;;;;;;10.30;2.40;;;;;;;25.84;26.60;97115.41;2081880;28;20204;-68
2022/07/16 09:24:59;;;;;;;1.95;0.75;;;;;;;25.79;26.70;97111.50;2079494;28;20208;-68
2022/07/16 09:26:04;;;;;;;3.05;0.88;;;;;;;25.63;27.37;97121.06;2081041;28;20204;-69
2022/07/16 09:27:16;;;;;;;4.70;0.98;;;;;;;25.72;26.86;97117.47;2079562;28;20224;-68
2022/07/16 09:28:17;;;;;;;4.15;0.90;;;;;;;25.77;26.62;97119.69;2079890;28;20197;-68
2022/07/16 09:29:19;;;;;;;2.35;1.25;;;;;;;25.63;26.66;97118.38;2082207;28;20197;-68
2022/07/16 09:30:25;;;;;;;2.15;0.80;;;;;;;25.81;26.55;97120.22;2080921;28;20867;-68
2022/07/16 09:31:41;;;;;;;3.50;0.80;;;;;;;25.58;26.59;97121.53;2086149;28;20196;-69
2022/07/16 09:32:42;;;;;;;4.35;1.05;;;;;;;25.69;26.44;97122.28;2084048;28;20671;-68
2022/07/16 09:33:59;;;;;;;3.40;0.90;;;;;;;25.80;26.36;97118.53;2083061;28;20208;-68
2022/07/16 10:01:57;;;;;;;3.17;0.97;;;;;;;25.86;26.19;97129.47;2047426;27;1526610;-67
2022/07/16 10:02:59;;;;;;;4.53;1.00;;;;;;;25.90;26.34;97122.81;2084600;28;20432;-67
2022/07/16 10:04:03;;;;;;;2.00;0.90;;;;;;;25.93;26.44;97124.34;2080306;28;20548;-68
2022/07/16 10:05:05;;;;;;;3.88;0.85;;;;;;;26.21;26.39;97127.78;2083283;28;20669;-68
2022/07/16 10:06:08;;;;;;;4.45;1.40;;;;;;;26.14;26.73;97113.34;2081647;28;20208;-68
2022/07/16 10:07:09;;;;;;;2.00;0.80;;;;;;;26.32;26.11;97120.50;2082249;28;20228;-68
2022/07/16 10:08:12;;;;;;;2.90;1.33;;;;;;;26.05;26.21;97117.78;2081509;28;20189;-68
2022/07/16 10:09:13;;;;;;;2.00;1.05;;;;;;;26.07;26.70;97120.31;2084819;28;20235;-69
2022/07/16 10:10:15;;;;;;;3.53;1.02;;;;;;;26.34;26.05;97126.56;2084369;28;20196;-66
2022/07/16 10:11:16;;;;;;;2.65;1.00;;;;;;;26.44;26.05;97123.78;2082510;28;20201;-65
2022/07/16 10:12:20;;;;;;;2.80;1.00;;;;;;;26.55;25.53;97126.16;2081948;28;20738;-66
2022/07/16 10:13:26;;;;;;;2.35;0.90;;;;;;;26.19;25.17;97123.59;2081089;28;20201;-65
2022/07/16 10:14:35;;;;;;;2.33;1.00;;;;;;;25.63;26.17;97123.72;2078821;28;20310;-65
2022/07/16 10:15:37;;;;;;;3.20;1.20;;;;;;;25.79;26.71;97124.88;2079701;28;20201;-65
2022/07/16 10:16:41;;;;;;;2.55;0.98;;;;;;;25.68;26.61;97124.09;2081232;28;20204;-65
2022/07/16 10:17:42;;;;;;;8.90;1.30;;;;;;;25.68;26.32;97125.97;2084293;28;20208;-66
2022/07/16 10:18:46;;;;;;;2.55;1.00;;;;;;;25.82;26.29;97132.59;2083039;28;20192;-65
2022/07/16 10:20:05;;;;;;;4.50;1.08;;;;;;;26.22;26.14;97121.44;2081641;28;20204;-65
2022/07/16 10:21:10;;;;;;;2.40;1.20;;;;;;;25.74;25.44;97130.69;2081424;28;20208;-65
2022/07/16 10:22:21;;;;;;;2.80;1.10;;;;;;;25.86;25.80;97126.78;2080861;28;20738;-65
2022/07/16 10:23:30;;;;;;;4.60;1.40;;;;;;;25.72;26.00;97125.47;2079014;28;20204;-65
2022/07/16 10:24:54;;;;;;;2.10;1.05;;;;;;;26.20;25.84;97123.44;2083193;28;20224;-65
2022/07/16 10:26:03;;;;;;;4.45;1.02;;;;;;;26.28;25.30;97128.00;2083865;28;20683;-66
2022/07/16 10:27:35;;;;;;;4.47;1.20;;;;;;;26.35;25.84;97126.38;2079830;28;20221;-66
2022/07/16 10:55:30;;;;;;;11.77;1.65;;;;;;;25.92;26.19;97118.16;2084853;28;20563;-65
2022/07/16 10:56:36;;;;;;;13.10;1.50;;;;;;;25.54;26.42;97130.81;2080059;28;20581;-65
2022/07/16 10:57:40;;;;;;;3.65;0.93;;;;;;;26.44;25.80;97124.59;2080967;28;20221;-65
2022/07/16 10:58:42;;;;;;;4.15;1.00;;;;;;;26.93;25.48;97118.75;2083532;28;20631;-65
2022/07/16 10:59:46;;;;;;;3.10;1.00;;;;;;;27.43;24.65;97122.47;2084831;28;20681;-65
2022/07/16 11:00:49;;;;;;;4.32;1.00;;;;;;;26.79;24.23;97124.69;2082613;28;20205;-65
2022/07/16 11:01:53;;;;;;;2.60;0.90;;;;;;;27.07;25.25;97125.34;2080240;28;20197;-65
2022/07/16 11:03:00;;;;;;;3.95;1.35;;;;;;;26.81;25.18;97126.19;2083176;28;20247;-66
2022/07/16 11:04:29;;;;;;;2.60;1.10;;;;;;;27.18;25.45;97129.53;2081650;28;20200;-66
2022/07/16 11:05:31;;;;;;;3.20;0.90;;;;;;;27.32;25.00;97130.78;2082406;28;20197;-65
2022/07/16 11:06:33;;;;;;;4.10;1.00;;;;;;;27.02;24.64;97130.31;2083031;28;20787;-65
2022/07/16 11:07:36;;;;;;;2.97;1.20;;;;;;;26.74;24.93;97133.22;2081754;28;20224;-67
2022/07/16 11:08:37;;;;;;;1.92;1.00;;;;;;;27.42;24.26;97131.50;2081330;28;20196;-65
2022/07/16 11:09:42;;;;;;;4.80;1.00;;;;;;;27.70;23.92;97128.53;2081265;28;20193;-65
2022/07/16 11:10:44;;;;;;;1.88;0.90;;;;;;;27.38;24.04;97127.44;2082361;28;20651;-65
2022/07/16 11:11:46;;;;;;;6.32;1.20;;;;;;;27.54;23.09;97114.09;2084392;28;20675;-65
2022/07/16 11:12:48;;;;;;;3.05;0.70;;;;;;;27.60;23.14;97131.38;2078269;28;20421;-65
2022/07/16 11:13:52;;;;;;;2.85;1.02;;;;;;;27.42;23.03;97131.50;2077262;28;20197;-66
2022/07/16 11:15:01;;;;;;;1.85;0.90;;;;;;;26.95;23.24;97129.28;2080954;28;20639;-65
2022/07/16 11:16:09;;;;;;;3.28;1.05;;;;;;;27.46;22.85;97122.13;2084498;28;20196;-65
2022/07/16 11:17:11;;;;;;;2.55;1.00;;;;;;;27.58;22.48;97130.72;2080084;28;20213;-65
2022/07/16 11:18:16;;;;;;;4.20;0.90;;;;;;;27.75;22.47;97128.06;2083029;28;20231;-65
2022/07/16 11:19:18;;;;;;;1.88;0.90;;;;;;;27.54;22.64;97132.03;2079007;28;20741;-66
2022/07/16 11:20:20;;;;;;;2.22;0.88;;;;;;;27.76;22.74;97127.88;2079699;28;20697;-65
2022/07/16 11:21:21;;;;;;;2.80;0.90;;;;;;;27.64;22.33;97119.34;2080292;28;20204;-65
2022/07/16 11:22:28;;;;;;;4.50;0.93;;;;;;;27.67;22.23;97132.41;2079752;28;20256;-65
2022/07/16 11:23:30;;;;;;;4.43;0.82;;;;;;;27.89;22.68;97130.09;2081490;28;20216;-65
2022/07/16 11:24:32;;;;;;;4.10;1.38;;;;;;;27.54;22.53;97127.50;2082267;28;20196;-65
2022/07/16 11:25:35;;;;;;;3.30;1.10;;;;;;;28.04;22.70;97132.97;2075253;28;20319;-65
2022/07/16 11:26:36;;;;;;;1.65;0.80;;;;;;;27.87;22.23;97126.72;2076078;28;20201;-65
2022/07/16 11:27:39;;;;;;;1.40;0.73;;;;;;;27.79;22.60;97134.75;2081447;28;20228;-65
2022/07/16 11:29:00;;;;;;;2.40;1.05;;;;;;;28.08;22.34;97138.84;2081496;28;20188;-66
2022/07/16 11:57:00;;;;;;;2.67;0.68;;;;;;;28.81;21.23;97137.97;2083188;28;20561;-65
2022/07/16 11:58:01;;;;;;;3.45;1.23;;;;;;;28.94;21.18;97134.72;2083505;28;20212;-65
2022/07/16 11:59:15;;;;;;;2.65;1.00;;;;;;;28.90;21.54;97137.91;2081175;28;20197;-65
2022/07/16 12:00:17;;;;;;;2.88;0.95;;;;;;;28.76;21.32;97140.34;2085046;28;20202;-65
2022/07/16 12:01:21;;;;;;;4.13;1.00;;;;;;;29.10;21.29;97139.22;2080996;28;20722;-65
2022/07/16 12:02:26;;;;;;;3.10;1.00;;;;;;;29.14;20.76;97137.00;2081622;28;20245;-65
2022/07/16 12:03:27;;;;;;;1.85;0.90;;;;;;;28.83;22.00;97143.16;2082187;28;20208;-65
2022/07/16 12:04:47;;;;;;;2.70;0.82;;;;;;;27.84;21.95;97137.78;2081228;28;20201;-65
2022/07/16 12:06:02;;;;;;;2.00;0.90;;;;;;;28.16;22.08;97136.16;2081611;28;20207;-65
2022/07/16 12:07:28;;;;;;;5.63;0.90;;;;;;;28.26;22.19;97128.78;2081480;28;20303;-65
2022/07/16 12:08:31;;;;;;;2.17;0.90;;;;;;;28.14;22.31;97128.28;2076464;28;20204;-64
2022/07/16 12:09:47;;;;;;;2.85;1.02;;;;;;;29.07;21.30;97126.09;2079530;28;20189;-65
2022/07/16 12:11:05;;;;;;;1.63;0.88;;;;;;;26.97;22.81;97129.94;2078530;28;20209;-65
2022/07/16 12:12:16;;;;;;;2.03;0.80;;;;;;;28.01;22.59;97130.59;2083283;28;20691;-64
2022/07/16 12:13:18;;;;;;;5.25;0.90;;;;;;;28.41;22.45;97133.47;2083297;28;20204;-64
2022/07/16 12:14:19;;;;;;;5.07;1.17;;;;;;;28.25;23.00;97129.81;2081948;28;20205;-65
2022/07/16 12:15:21;;;;;;;5.75;0.93;;;;;;;28.61;23.01;97132.09;2081754;28;20193;-64
2022/07/16 12:16:24;;;;;;;5.28;1.05;;;;;;;29.19;22.24;97136.47;2080243;28;20561;-65
2022/07/16 12:17:33;;;;;;;1.80;0.90;;;;;;;29.20;22.39;97133.63;2078479;28;20228;-64
2022/07/16 12:18:35;;;;;;;2.47;1.00;;;;;;;29.83;21.87;97144.41;2082785;28;20189;-65
2022/07/16 12:19:36;;;;;;;6.90;1.00;;;;;;;29.14;22.81;97140.53;2080954;28;20205;-65
2022/07/16 12:20:38;;;;;;;1.73;0.88;;;;;;;29.57;22.67;97147.41;2081408;28;20197;-65
2022/07/16 12:21:39;;;;;;;2.67;1.50;;;;;;;29.88;22.33;97144.75;2084700;28;20398;-65
2022/07/16 12:22:56;;;;;;;4.32;0.90;;;;;;;29.71;21.89;97138.63;2081681;28;20193;-65
2022/07/16 12:23:58;;;;;;;2.30;0.80;;;;;;;29.99;22.30;97138.09;2074128;28;20252;-65
2022/07/16 12:25:20;;;;;;;3.47;0.90;;;;;;;29.61;22.39;97137.97;2076252;28;20657;-64
2022/07/16 12:26:32;;;;;;;1.40;0.70;;;;;;;29.27;22.58;97136.47;2080568;28;20202;-65
2022/07/16 12:27:45;;;;;;;2.78;0.80;;;;;;;29.60;22.62;97147.91;2084556;28;20281;-65
2022/07/16 12:28:52;;;;;;;2.38;0.95;;;;;;;30.20;21.48;97142.81;2082116;28;20193;-65
2022/07/16 12:30:03;;;;;;;2.97;1.10;;;;;;;29.58;22.15;97141.03;2080522;28;20201;-65
2022/07/16 12:31:11;;;;;;;2.38;1.13;;;;;;;29.74;21.99;97140.09;2081422;28;20430;-65
2022/07/16 12:32:13;;;;;;;1.90;0.70;;;;;;;30.57;21.39;97140.34;2083868;28;20255;-64
2022/07/16 12:33:23;;;;;;;2.13;0.90;;;;;;;30.26;21.83;97135.88;2082642;28;20544;-64
2022/07/16 12:34:41;;;;;;;3.57;1.10;;;;;;;30.55;21.16;97140.53;2082126;28;20441;-65
2022/07/16 12:35:59;;;;;;;4.77;0.97;;;;;;;29.89;21.38;97138.34;2084699;28;20453;-65
2022/07/16 12:37:00;;;;;;;3.10;0.80;;;;;;;29.72;21.82;97145.66;2080655;28;25910;-65
2022/07/16 12:38:03;;;;;;;2.30;1.00;;;;;;;29.06;22.33;97143.25;2084555;28;20193;-65
2022/07/16 12:39:10;;;;;;;4.13;0.80;;;;;;;29.61;22.39;97138.84;2083725;28;20425;-64
2022/07/16 12:40:12;;;;;;;1.85;0.90;;;;;;;29.60;22.04;97142.53;2084879;28;20436;-65
2022/07/16 12:41:17;;;;;;;2.70;0.90;;;;;;;30.35;21.74;97142.88;2086822;28;20201;-65
2022/07/16 12:42:19;;;;;;;3.40;0.83;;;;;;;30.01;21.00;97143.31;2080628;28;20517;-65
2022/07/16 12:43:20;;;;;;;2.80;0.97;;;;;;;29.93;21.90;97141.53;2081123;28;20425;-65
2022/07/16 12:44:22;;;;;;;3.13;0.90;;;;;;;29.92;21.80;97145.22;2080419;28;20951;-65
2022/07/16 12:45:24;;;;;;;2.07;0.80;;;;;;;30.47;21.61;97145.94;2080741;28;20906;-65
2022/07/16 12:46:40;;;;;;;1.73;0.90;;;;;;;30.18;20.55;97150.22;2081225;28;20755;-65
2022/07/16 13:15:50;;;;;;;2.33;0.80;;;;;;;30.29;21.71;97127.44;2090184;28;20593;-64
2022/07/16 13:16:53;;;;;;;5.32;0.88;;;;;;;30.71;20.93;97128.72;2084600;28;20188;-64
2022/07/16 13:17:55;;;;;;;4.25;1.20;;;;;;;30.71;21.46;97136.00;2078730;28;20200;-64
2022/07/16 13:18:57;;;;;;;2.15;1.10;;;;;;;30.25;21.24;97128.81;2078797;28;20193;-65
2022/07/16 13:19:59;;;;;;;1.95;0.80;;;;;;;29.91;21.87;97139.00;2076090;28;20193;-65
2022/07/16 13:21:01;;;;;;;4.82;1.17;;;;;;;30.43;20.96;97123.91;2074436;28;20240;-65
2022/07/16 13:22:03;;;;;;;2.53;1.13;;;;;;;30.53;21.15;97133.66;2069598;28;20233;-65
2022/07/16 13:23:06;;;;;;;1.63;0.90;;;;;;;30.44;21.42;97144.44;2067334;28;20708;-64
2022/07/16 13:24:10;;;;;;;2.90;1.33;;;;;;;31.03;20.95;97136.63;2068385;28;20526;-65
2022/07/16 13:25:11;;;;;;;2.45;1.13;;;;;;;31.20;20.57;97131.94;2069774;28;20427;-65
2022/07/16 13:26:13;;;;;;;2.10;1.10;;;;;;;31.22;20.83;97132.56;2068763;28;20198;-64
2022/07/16 13:27:15;;;;;;;1.90;0.87;;;;;;;31.21;20.34;97128.19;2070077;28;20463;-65
2022/07/16 13:28:20;;;;;;;2.97;0.90;;;;;;;30.69;21.06;97130.78;2066929;28;20427;-65
2022/07/16 13:29:22;;;;;;;1.73;0.80;;;;;;;30.82;21.06;97134.69;2067789;28;20431;-65
2022/07/16 13:30:23;;;;;;;2.30;1.40;;;;;;;30.04;21.08;97132.19;2069167;28;20782;-65
2022/07/16 13:31:25;;;;;;;2.67;1.30;;;;;;;30.12;20.98;97127.56;2070511;28;20431;-65
2022/07/16 13:32:27;;;;;;;3.40;0.90;;;;;;;29.58;22.06;97124.91;2070067;28;20549;-65
2022/07/16 13:33:29;;;;;;;3.83;1.40;;;;;;;29.45;22.62;97126.31;2070338;28;20436;-64
2022/07/16 13:34:30;;;;;;;3.07;0.93;;;;;;;30.40;21.86;97126.16;2070677;28;21067;-65
2022/07/16 13:35:32;;;;;;;1.90;0.97;;;;;;;31.29;21.06;97130.78;2070441;28;20977;-65
2022/07/16 13:36:33;;;;;;;3.40;0.90;;;;;;;31.35;21.14;97121.94;2070285;28;20432;-65
2022/07/16 13:37:34;;;;;;;2.80;0.90;;;;;;;31.75;20.85;97130.50;2067864;28;20459;-65
2022/07/16 13:38:37;;;;;;;3.17;1.40;;;;;;;30.99;20.00;97120.00;2070588;28;20434;-65
2022/07/16 13:39:39;;;;;;;6.60;1.43;;;;;;;30.84;20.61;97125.38;2070356;28;20428;-65
2022/07/16 13:40:40;;;;;;;1.80;1.00;;;;;;;30.60;21.17;97132.72;2070377;28;20427;-65
2022/07/16 13:41:42;;;;;;;3.73;1.13;;;;;;;30.41;21.25;97127.81;2070169;28;20510;-65
2022/07/16 13:42:43;;;;;;;2.73;1.07;;;;;;;30.70;21.28;97123.53;2070281;28;20431;-65
2022/07/16 13:43:46;;;;;;;3.33;1.10;;;;;;;30.49;20.89;97126.94;2070370;28;20423;-65
2022/07/16 13:44:47;;;;;;;2.60;1.20;;;;;;;30.76;20.77;97131.69;2069876;28;20443;-65
2022/07/16 13:45:49;;;;;;;2.40;0.90;;;;;;;30.94;20.31;97125.09;2070420;28;20419;-65
2022/07/16 13:46:52;;;;;;;5.60;1.00;;;;;;;30.43;20.53;97128.47;2068965;28;20432;-65
2022/07/16 13:47:54;;;;;;;2.03;1.00;;;;;;;29.75;20.98;97121.09;2069936;28;20423;-65
2022/07/16 13:48:56;;;;;;;7.07;1.40;;;;;;;29.75;21.58;97126.47;2067594;28;20466;-65
2022/07/16 13:49:57;;;;;;;2.17;1.20;;;;;;;29.98;21.64;97125.69;2070012;28;20427;-65
2022/07/16 13:50:59;;;;;;;2.63;1.27;;;;;;;30.22;21.63;97121.09;2070519;28;20435;-65
2022/07/16 13:52:02;;;;;;;2.87;0.90;;;;;;;30.35;21.90;97121.31;2069184;28;20463;-65
2022/07/16 13:53:04;;;;;;;4.70;1.47;;;;;;;29.94;22.01;97127.03;2070185;28;20438;-65
2022/07/16 13:54:06;;;;;;;4.10;1.37;;;;;;;30.42;21.48;97133.03;2070343;28;20434;-65
2022/07/16 13:55:09;;;;;;;2.60;1.03;;;;;;;30.29;21.83;97133.63;2070029;28;20779;-65
2022/07/16 13:56:10;;;;;;;4.47;1.17;;;;;;;30.73;21.33;97125.88;2070009;28;20439;-64
2022/07/16 13:58:33;;;;;;;5.33;1.23;;;;;;;30.65;21.03;97129.47;2070288;28;20435;-65
2022/07/16 13:59:36;;;;;;;3.93;1.70;;;;;;;30.05;21.70;97132.00;2070205;28;20518;-64
2022/07/16 14:00:38;;;;;;;2.77;1.10;;;;;;;30.91;21.21;97134.41;2069523;28;20557;-65
2022/07/16 14:01:40;;;;;;;2.90;1.20;;;;;;;30.91;20.74;97137.09;2068912;28;20427;-64
2022/07/16 14:02:41;;;;;;;3.80;1.13;;;;;;;31.45;20.48;97126.19;2069432;28;20435;-64
2022/07/16 14:03:43;;;;;;;2.37;1.40;;;;;;;31.32;20.51;97127.72;2070030;28;20480;-65
2022/07/16 14:18:12;;;;;;;2.53;1.10;;;;;;;30.17;21.63;97134.25;2106945;27;20921;-64
2022/07/16 14:19:14;;;;;;;2.88;1.02;;;;;;;30.41;21.31;97125.97;2102693;28;20217;-65
2022/07/16 14:20:16;;;;;;;7.90;1.50;;;;;;;31.29;20.92;97128.09;2103947;28;20198;-64
2022/07/16 14:21:19;;;;;;;2.20;0.90;;;;;;;31.71;20.52;97123.84;2103843;28;20195;-64
2022/07/16 14:22:21;;;;;;;3.38;1.13;;;;;;;31.66;20.72;97122.75;2098620;28;20234;-65
2022/07/16 14:23:22;;;;;;;2.07;0.97;;;;;;;31.65;20.90;97129.16;2101055;28;20202;-65
2022/07/16 14:24:24;;;;;;;2.30;1.10;;;;;;;30.17;21.25;97120.78;2097878;28;20421;-65
2022/07/16 14:25:26;;;;;;;2.43;1.30;;;;;;;28.98;22.97;97122.63;2100122;28;20456;-65
2022/07/16 14:26:27;;;;;;;2.07;0.87;;;;;;;30.45;21.82;97127.28;2100917;28;20435;-65
2022/07/16 14:27:29;;;;;;;1.67;0.83;;;;;;;31.23;21.67;97126.97;2098305;28;20594;-66
2022/07/16 14:28:30;;;;;;;3.50;1.23;;;;;;;31.26;21.07;97129.31;2097723;28;20424;-66
2022/07/16 14:29:32;;;;;;;2.10;1.07;;;;;;;31.02;20.38;97125.03;2096940;28;20428;-67
2022/07/16 14:30:34;;;;;;;5.57;1.40;;;;;;;30.63;20.89;97126.13;2099326;28;20416;-66
2022/07/16 14:31:36;;;;;;;2.40;0.97;;;;;;;30.64;21.16;97127.81;2098615;28;20437;-67
2022/07/16 14:32:39;;;;;;;2.83;1.20;;;;;;;29.92;21.31;97132.59;2100603;28;20436;-67
2022/07/16 14:33:42;;;;;;;6.37;1.17;;;;;;;29.88;21.69;97133.13;2101209;28;20432;-66
2022/07/16 14:34:43;;;;;;;3.77;1.10;;;;;;;29.69;21.74;97135.25;2098703;28;20428;-66
2022/07/16 14:35:52;;;;;;;3.20;1.20;;;;;;;29.80;22.15;97136.69;2096768;28;20428;-66
2022/07/16 14:36:53;;;;;;;3.30;1.37;;;;;;;29.83;22.22;97136.34;2096012;28;20937;-66
2022/07/16 14:37:55;;;;;;;8.60;1.30;;;;;;;30.43;21.48;97137.38;2091823;28;20464;-66
2022/07/16 14:38:56;;;;;;;6.60;1.30;;;;;;;30.18;21.87;97138.63;2090036;28;20447;-67
2022/07/16 14:39:58;;;;;;;2.43;1.10;;;;;;;30.95;20.82;97137.56;2090064;28;20502;-66
2022/07/16 14:41:00;;;;;;;4.37;1.10;;;;;;;31.12;20.50;97132.84;2090088;28;20529;-66
2022/07/16 14:42:01;;;;;;;3.30;1.27;;;;;;;31.06;20.90;97133.63;2089650;28;20450;-66
2022/07/16 14:43:03;;;;;;;5.70;1.00;;;;;;;31.13;20.72;97141.78;2091487;28;20433;-65
2022/07/16 14:44:04;;;;;;;6.40;1.67;;;;;;;31.00;20.80;97140.53;2091990;28;20425;-64
2022/07/16 14:45:13;;;;;;;12.87;1.13;;;;;;;31.04;20.67;97141.00;2086301;28;20432;-64
2022/07/16 14:46:14;;;;;;;3.77;1.10;;;;;;;30.90;21.27;97137.28;2087563;28;20425;-65
2022/07/16 14:47:16;;;;;;;2.33;1.20;;;;;;;29.97;21.85;97140.16;2092636;28;20456;-65
2022/07/16 14:48:18;;;;;;;5.83;1.00;;;;;;;30.58;21.75;97140.16;2093526;28;20417;-64
2022/07/16 14:49:20;;;;;;;1.40;0.80;;;;;;;30.46;21.16;97126.25;2087296;28;20500;-64
2022/07/16 14:50:22;;;;;;;2.27;0.97;;;;;;;30.66;21.49;97141.09;2087231;28;20781;-65
2022/07/16 14:51:23;;;;;;;2.50;1.30;;;;;;;30.75;20.89;97140.84;2088280;28;20634;-65
2022/07/16 14:52:25;;;;;;;2.60;1.20;;;;;;;30.61;21.88;97137.09;2087373;28;20861;-65
2022/07/16 14:53:26;;;;;;;4.13;1.63;;;;;;;30.19;21.43;97135.75;2088657;28;20440;-65
2022/07/16 14:54:28;;;;;;;2.33;1.00;;;;;;;30.48;21.74;97134.19;2089635;28;20897;-65
2022/07/16 14:55:29;;;;;;;3.10;1.30;;;;;;;30.73;21.21;97137.47;2088555;28;20426;-65
2022/07/16 14:56:31;;;;;;;2.53;1.27;;;;;;;31.18;20.68;97136.66;2086846;28;20464;-65
2022/07/16 14:57:34;;;;;;;3.20;1.00;;;;;;;31.64;20.48;97131.00;2086034;28;20461;-65
2022/07/16 14:58:35;;;;;;;3.80;1.50;;;;;;;31.62;20.15;97140.28;2087427;28;21340;-65
2022/07/16 14:59:37;;;;;;;8.73;1.23;;;;;;;31.98;20.81;97142.16;2087134;28;20437;-65
2022/07/16 15:00:38;;;;;;;6.10;1.40;;;;;;;31.29;20.90;97132.63;2086839;28;20939;-65
2022/07/16 15:01:40;;;;;;;2.90;1.20;;;;;;;30.16;21.87;97140.66;2088644;28;20918;-66
2022/07/16 15:02:43;;;;;;;2.30;0.90;;;;;;;30.26;21.39;97141.28;2091342;28;20821;-65
2022/07/16 15:03:45;;;;;;;3.20;1.10;;;;;;;30.13;22.05;97142.72;2089601;28;20936;-65
2022/07/16 15:04:47;;;;;;;1.73;0.90;;;;;;;30.23;21.61;97142.47;2085053;28;20546;-65
2022/07/16 15:05:48;;;;;;;3.90;1.30;;;;;;;30.31;21.77;97133.47;2085938;28;20766;-65
2022/07/16 15:06:50;;;;;;;2.53;1.20;;;;;;;30.52;21.31;97131.97;2086318;28;20486;-65
2022/07/16 15:07:51;;;;;;;3.20;1.00;;;;;;;30.91;21.46;97133.59;2085237;28;20425;-66
2022/07/16 15:08:53;;;;;;;7.50;1.10;;;;;;;31.21;20.91;97130.88;2088039;28;20433;-65
2022/07/16 15:09:54;;;;;;;2.43;1.63;;;;;;;30.62;20.94;97130.66;2089332;28;20433;-65
2022/07/16 15:10:56;;;;;;;4.43;1.00;;;;;;;29.78;22.35;97134.16;2088516;28;20437;-65
2022/07/16 15:11:57;;;;;;;5.13;1.20;;;;;;;30.61;20.96;97136.25;2089087;28;20824;-65
2022/07/16 15:12:59;;;;;;;7.67;1.53;;;;;;;31.00;20.89;97129.75;2088886;28;20477;-65
2022/07/16 15:14:00;;;;;;;3.40;1.10;;;;;;;30.90;21.03;97127.34;2088459;28;20791;-65
2022/07/16 15:15:07;;;;;;;3.83;1.13;;;;;;;30.65;21.63;97134.84;2088327;28;20866;-65
2022/07/16 15:16:08;;;;;;;4.30;1.80;;;;;;;29.26;22.88;97134.78;2087229;28;20426;-65
2022/07/16 15:17:15;;;;;;;4.13;1.63;;;;;;;29.73;22.64;97130.34;2089804;28;20601;-65
2022/07/16 15:18:17;;;;;;;2.70;0.97;;;;;;;30.26;22.35;97134.00;2091037;28;20789;-66
2022/07/16 15:19:18;;;;;;;4.43;1.23;;;;;;;30.58;21.81;97129.38;2089543;28;20430;-65
2022/07/16 15:20:20;;;;;;;3.87;1.27;;;;;;;29.99;22.75;97137.25;2091723;28;20420;-65
2022/07/16 15:21:21;;;;;;;4.23;1.07;;;;;;;30.45;22.37;97134.53;2090543;28;20783;-65
2022/07/16 15:22:23;;;;;;;3.30;1.27;;;;;;;30.38;21.73;97120.94;2088167;28;20834;-66
2022/07/16 15:23:24;;;;;;;2.23;1.23;;;;;;;29.83;22.51;97136.34;2090590;28;20935;-65